createdAt,value
2022-11-08T00:00:58.146Z,1009.55
2022-11-08T00:03:02.377Z,1009.52
2022-11-08T00:04:02.345Z,1009.51
2022-11-08T00:06:06.407Z,1009.51
2022-11-08T00:07:06.421Z,1009.51
2022-11-08T00:08:06.452Z,1009.49
2022-11-08T00:09:06.483Z,1009.47
2022-11-08T00:10:06.518Z,1009.48
2022-11-08T00:11:06.550Z,1009.45
2022-11-08T00:12:06.582Z,1009.48
2022-11-08T00:13:06.647Z,1009.59
2022-11-08T00:14:06.648Z,1009.52
2022-11-08T00:15:06.679Z,1009.51
2022-11-08T00:16:06.716Z,1009.55
2022-11-08T00:17:06.744Z,1009.53
2022-11-08T00:18:06.784Z,1009.50
2022-11-08T00:19:06.812Z,1009.50
2022-11-08T00:20:06.846Z,1009.55
2022-11-08T00:21:06.876Z,1009.50
2022-11-08T00:22:06.909Z,1009.51
2022-11-08T00:23:06.945Z,1009.53
2022-11-08T00:24:06.975Z,1009.59
2022-11-08T00:25:07.008Z,1009.57
2022-11-08T00:26:07.040Z,1009.58
2022-11-08T00:27:07.073Z,1009.57
2022-11-08T00:28:07.108Z,1009.56
2022-11-08T00:29:07.137Z,1009.59
2022-11-08T00:30:07.171Z,1009.57
2022-11-08T00:31:07.203Z,1009.61
2022-11-08T00:32:07.237Z,1009.62
2022-11-08T00:33:07.269Z,1009.64
2022-11-08T00:34:07.304Z,1009.60
2022-11-08T00:35:07.337Z,1009.59
2022-11-08T00:36:07.369Z,1009.59
2022-11-08T00:37:07.398Z,1009.58
2022-11-08T00:38:07.432Z,1009.59
2022-11-08T00:39:07.464Z,1009.65
2022-11-08T00:40:07.500Z,1009.64
2022-11-08T00:41:07.527Z,1009.64
2022-11-08T00:42:07.563Z,1009.62
2022-11-08T00:43:07.635Z,1009.63
2022-11-08T00:44:07.678Z,1009.64
2022-11-08T00:45:07.659Z,1009.63
2022-11-08T00:46:07.695Z,1009.64
2022-11-08T00:47:07.725Z,1009.61
2022-11-08T00:48:07.758Z,1009.64
2022-11-08T00:49:07.791Z,1009.63
2022-11-08T00:50:07.824Z,1009.63
2022-11-08T00:51:07.855Z,1009.70
2022-11-08T00:52:07.890Z,1009.64
2022-11-08T00:53:07.921Z,1009.67
2022-11-08T00:54:07.955Z,1009.64
2022-11-08T00:55:07.987Z,1009.65
2022-11-08T00:56:08.022Z,1009.64
2022-11-08T00:57:08.056Z,1009.64
2022-11-08T00:58:08.086Z,1009.66
2022-11-08T00:59:08.117Z,1009.65
2022-11-08T01:00:08.152Z,1009.62
2022-11-08T01:01:08.281Z,1009.62
2022-11-08T01:02:08.297Z,1009.63
2022-11-08T01:03:08.248Z,1009.63
2022-11-08T01:04:08.281Z,1009.62
2022-11-08T01:05:08.314Z,1009.60
2022-11-08T01:06:08.347Z,1009.56
2022-11-08T01:07:08.381Z,1009.63
2022-11-08T01:08:08.420Z,1009.60
2022-11-08T01:09:08.444Z,1009.57
2022-11-08T01:10:08.476Z,1009.63
2022-11-08T01:11:08.508Z,1009.55
2022-11-08T01:12:08.543Z,1009.54
2022-11-08T01:13:08.574Z,1009.55
2022-11-08T01:14:08.609Z,1009.56
2022-11-08T01:15:08.697Z,1009.54
2022-11-08T01:16:08.673Z,1009.57
2022-11-08T01:17:08.703Z,1009.57
2022-11-08T01:18:08.736Z,1009.55
2022-11-08T01:19:08.768Z,1009.54
2022-11-08T01:20:08.803Z,1009.54
2022-11-08T01:21:08.833Z,1009.51
2022-11-08T01:22:08.869Z,1009.49
2022-11-08T01:23:08.899Z,1009.49
2022-11-08T01:24:08.931Z,1009.54
2022-11-08T01:25:08.963Z,1009.50
2022-11-08T01:26:08.998Z,1009.51
2022-11-08T01:27:09.027Z,1009.47
2022-11-08T01:28:09.063Z,1009.59
2022-11-08T01:29:09.095Z,1009.48
2022-11-08T01:30:09.133Z,1009.46
2022-11-08T01:31:09.158Z,1009.42
2022-11-08T01:32:09.197Z,1009.47
2022-11-08T01:33:09.222Z,1009.44
2022-11-08T01:34:09.262Z,1009.41
2022-11-08T01:35:09.292Z,1009.40
2022-11-08T01:36:09.321Z,1009.42
2022-11-08T01:37:09.351Z,1009.41
2022-11-08T01:38:09.396Z,1009.41
2022-11-08T01:39:09.421Z,1009.46
2022-11-08T01:40:09.452Z,1009.40
2022-11-08T01:41:09.483Z,1009.42
2022-11-08T01:42:09.516Z,1009.40
2022-11-08T01:43:09.547Z,1009.36
2022-11-08T01:44:09.581Z,1009.36
2022-11-08T01:45:09.612Z,1009.38
2022-11-08T01:46:09.647Z,1009.43
2022-11-08T01:47:09.682Z,1009.40
2022-11-08T01:48:09.710Z,1009.42
2022-11-08T01:49:09.743Z,1009.44
2022-11-08T01:50:09.778Z,1009.49
2022-11-08T01:51:09.807Z,1009.40
2022-11-08T01:52:09.840Z,1009.44
2022-11-08T01:53:09.870Z,1009.43
2022-11-08T01:54:09.909Z,1009.44
2022-11-08T01:55:09.946Z,1009.40
2022-11-08T01:56:09.970Z,1009.46
2022-11-08T01:57:10.002Z,1009.43
2022-11-08T01:58:10.033Z,1009.46
2022-11-08T01:59:10.066Z,1009.46
2022-11-08T02:00:10.101Z,1009.46
2022-11-08T02:01:10.225Z,1009.47
2022-11-08T02:02:10.383Z,1009.48
2022-11-08T02:03:10.199Z,1009.42
2022-11-08T02:04:10.230Z,1009.46
2022-11-08T02:05:10.261Z,1009.56
2022-11-08T02:06:10.296Z,1009.46
2022-11-08T02:07:10.325Z,1009.48
2022-11-08T02:08:10.359Z,1009.51
2022-11-08T02:09:10.390Z,1009.45
2022-11-08T02:10:10.424Z,1009.48
2022-11-08T02:11:10.458Z,1009.43
2022-11-08T02:12:10.496Z,1009.42
2022-11-08T02:13:14.446Z,1009.42
2022-11-08T02:14:10.554Z,1009.39
2022-11-08T02:15:10.606Z,1009.42
2022-11-08T02:16:10.623Z,1009.39
2022-11-08T02:17:10.649Z,1009.35
2022-11-08T02:18:10.744Z,1009.43
2022-11-08T02:19:10.717Z,1009.33
2022-11-08T02:20:10.752Z,1009.39
2022-11-08T02:21:10.779Z,1009.26
2022-11-08T02:22:10.816Z,1009.28
2022-11-08T02:23:10.847Z,1009.29
2022-11-08T02:24:10.878Z,1009.26
2022-11-08T02:25:10.908Z,1009.29
2022-11-08T02:26:10.945Z,1009.32
2022-11-08T02:27:10.973Z,1009.35
2022-11-08T02:28:11.006Z,1009.35
2022-11-08T02:29:11.037Z,1009.39
2022-11-08T02:30:11.076Z,1009.39
2022-11-08T02:31:11.106Z,1009.41
2022-11-08T02:32:11.157Z,1009.40
2022-11-08T02:33:11.169Z,1009.38
2022-11-08T02:34:11.204Z,1009.39
2022-11-08T02:35:11.234Z,1009.35
2022-11-08T02:36:11.270Z,1009.37
2022-11-08T02:37:11.300Z,1009.35
2022-11-08T02:38:11.333Z,1009.46
2022-11-08T02:39:11.355Z,1009.37
2022-11-08T02:40:11.387Z,1009.37
2022-11-08T02:41:11.419Z,1009.46
2022-11-08T02:42:11.453Z,1009.39
2022-11-08T02:43:11.486Z,1009.38
2022-11-08T02:44:11.518Z,1009.35
2022-11-08T02:45:11.551Z,1009.38
2022-11-08T02:46:11.580Z,1009.38
2022-11-08T02:47:11.616Z,1009.46
2022-11-08T02:48:11.646Z,1009.40
2022-11-08T02:49:11.681Z,1009.36
2022-11-08T02:50:11.714Z,1009.38
2022-11-08T02:51:11.748Z,1009.39
2022-11-08T02:52:11.778Z,1009.34
2022-11-08T02:53:11.811Z,1009.35
2022-11-08T02:54:11.843Z,1009.41
2022-11-08T02:55:11.874Z,1009.36
2022-11-08T02:56:11.915Z,1009.39
2022-11-08T02:57:11.938Z,1009.43
2022-11-08T02:58:11.972Z,1009.39
2022-11-08T02:59:12.004Z,1009.38
2022-11-08T03:00:12.043Z,1009.40
2022-11-08T03:01:12.082Z,1009.37
2022-11-08T03:02:12.311Z,1009.39
2022-11-08T03:03:12.135Z,1009.39
2022-11-08T03:04:12.170Z,1009.41
2022-11-08T03:05:12.196Z,1009.41
2022-11-08T03:06:12.233Z,1009.35
2022-11-08T03:07:12.263Z,1009.37
2022-11-08T03:08:12.296Z,1009.34
2022-11-08T03:09:12.326Z,1009.40
2022-11-08T03:10:12.361Z,1009.33
2022-11-08T03:11:12.393Z,1009.35
2022-11-08T03:12:12.426Z,1009.35
2022-11-08T03:13:12.457Z,1009.35
2022-11-08T03:14:12.491Z,1009.34
2022-11-08T03:15:12.536Z,1009.42
2022-11-08T03:16:12.555Z,1009.39
2022-11-08T03:17:12.587Z,1009.35
2022-11-08T03:18:12.623Z,1009.40
2022-11-08T03:19:12.651Z,1009.39
2022-11-08T03:20:12.692Z,1009.39
2022-11-08T03:21:12.720Z,1009.41
2022-11-08T03:22:12.749Z,1009.38
2022-11-08T03:23:12.784Z,1009.38
2022-11-08T03:24:12.816Z,1009.39
2022-11-08T03:25:12.844Z,1009.33
2022-11-08T03:26:12.878Z,1009.32
2022-11-08T03:27:12.911Z,1009.30
2022-11-08T03:28:12.943Z,1009.35
2022-11-08T03:29:12.976Z,1009.32
2022-11-08T03:30:13.008Z,1009.37
2022-11-08T03:31:13.039Z,1009.34
2022-11-08T03:32:13.075Z,1009.34
2022-11-08T03:33:13.104Z,1009.32
2022-11-08T03:34:13.137Z,1009.34
2022-11-08T03:35:13.168Z,1009.36
2022-11-08T03:36:13.202Z,1009.37
2022-11-08T03:37:13.232Z,1009.36
2022-11-08T03:38:13.267Z,1009.34
2022-11-08T03:39:13.301Z,1009.34
2022-11-08T03:40:13.420Z,1009.35
2022-11-08T03:41:13.361Z,1009.30
2022-11-08T03:42:13.402Z,1009.34
2022-11-08T03:43:13.431Z,1009.33
2022-11-08T03:44:13.462Z,1009.30
2022-11-08T03:45:13.517Z,1009.27
2022-11-08T03:46:13.563Z,1009.27
2022-11-08T03:47:13.560Z,1009.23
2022-11-08T03:48:13.590Z,1009.30
2022-11-08T03:49:13.625Z,1009.27
2022-11-08T03:50:13.656Z,1009.26
2022-11-08T03:51:13.689Z,1009.27
2022-11-08T03:52:13.722Z,1009.26
2022-11-08T03:53:13.750Z,1009.26
2022-11-08T03:54:13.785Z,1009.25
2022-11-08T03:55:13.852Z,1009.25
2022-11-08T03:56:13.860Z,1009.27
2022-11-08T03:57:13.885Z,1009.29
2022-11-08T03:58:13.934Z,1009.30
2022-11-08T03:59:13.948Z,1009.31
2022-11-08T04:00:13.979Z,1009.29
2022-11-08T04:01:14.099Z,1009.28
2022-11-08T04:02:14.158Z,1009.24
2022-11-08T04:03:14.077Z,1009.20
2022-11-08T04:04:14.111Z,1009.22
2022-11-08T04:05:14.141Z,1009.21
2022-11-08T04:06:14.174Z,1009.20
2022-11-08T04:07:14.208Z,1009.17
2022-11-08T04:08:14.343Z,1009.18
2022-11-08T04:09:18.991Z,1009.22
2022-11-08T04:10:14.306Z,1009.18
2022-11-08T04:11:14.336Z,1009.18
2022-11-08T04:12:14.372Z,1009.21
2022-11-08T04:13:14.399Z,1009.28
2022-11-08T04:14:14.432Z,1009.31
2022-11-08T04:15:14.512Z,1009.27
2022-11-08T04:16:17.876Z,1009.28
2022-11-08T04:17:14.529Z,1009.25
2022-11-08T04:18:14.629Z,1009.19
2022-11-08T04:19:14.625Z,1009.23
2022-11-08T04:20:14.629Z,1009.26
2022-11-08T04:21:14.658Z,1009.26
2022-11-08T04:22:14.692Z,1009.24
2022-11-08T04:23:14.723Z,1009.28
2022-11-08T04:24:14.759Z,1009.27
2022-11-08T04:25:14.789Z,1009.30
2022-11-08T04:26:14.822Z,1009.30
2022-11-08T04:27:14.857Z,1009.32
2022-11-08T04:28:15.090Z,1009.29
2022-11-08T04:29:14.917Z,1009.37
2022-11-08T04:30:14.950Z,1009.34
2022-11-08T04:31:14.981Z,1009.35
2022-11-08T04:32:15.017Z,1009.34
2022-11-08T04:33:15.047Z,1009.29
2022-11-08T04:34:15.084Z,1009.29
2022-11-08T04:35:15.115Z,1009.28
2022-11-08T04:36:15.147Z,1009.29
2022-11-08T04:37:15.175Z,1009.23
2022-11-08T04:38:15.635Z,1009.24
2022-11-08T04:39:15.241Z,1009.25
2022-11-08T04:40:15.276Z,1009.18
2022-11-08T04:41:15.304Z,1009.17
2022-11-08T04:42:15.339Z,1009.15
2022-11-08T04:43:15.372Z,1009.23
2022-11-08T04:44:15.405Z,1009.22
2022-11-08T04:45:15.437Z,1009.20
2022-11-08T04:46:15.472Z,1009.27
2022-11-08T04:47:15.498Z,1009.25
2022-11-08T04:48:16.067Z,1009.23
2022-11-08T04:49:15.563Z,1009.24
2022-11-08T04:50:15.608Z,1009.22
2022-11-08T04:51:15.632Z,1009.25
2022-11-08T04:52:15.661Z,1009.25
2022-11-08T04:53:15.692Z,1009.27
2022-11-08T04:54:15.729Z,1009.22
2022-11-08T04:55:15.758Z,1009.24
2022-11-08T04:56:15.799Z,1009.29
2022-11-08T04:57:15.822Z,1009.28
2022-11-08T04:58:16.278Z,1009.31
2022-11-08T04:59:15.887Z,1009.35
2022-11-08T05:00:15.919Z,1009.28
2022-11-08T05:01:16.008Z,1009.34
2022-11-08T05:02:16.181Z,1009.30
2022-11-08T05:03:16.016Z,1009.31
2022-11-08T05:04:16.047Z,1009.33
2022-11-08T05:05:16.078Z,1009.26
2022-11-08T05:06:16.112Z,1009.26
2022-11-08T05:07:16.149Z,1009.23
2022-11-08T05:08:16.517Z,1009.33
2022-11-08T05:09:16.207Z,1009.28
2022-11-08T05:10:16.241Z,1009.21
2022-11-08T05:11:16.272Z,1009.25
2022-11-08T05:12:16.305Z,1009.24
2022-11-08T05:13:16.338Z,1009.30
2022-11-08T05:14:16.371Z,1009.29
2022-11-08T05:15:16.401Z,1009.28
2022-11-08T05:16:16.434Z,1009.27
2022-11-08T05:17:16.465Z,1009.24
2022-11-08T05:18:17.016Z,1009.25
2022-11-08T05:19:16.530Z,1009.27
2022-11-08T05:20:16.564Z,1009.31
2022-11-08T05:21:16.593Z,1009.31
2022-11-08T05:22:16.628Z,1009.30
2022-11-08T05:23:16.658Z,1009.23
2022-11-08T05:24:16.696Z,1009.23
2022-11-08T05:25:16.721Z,1009.23
2022-11-08T05:26:16.756Z,1009.21
2022-11-08T05:27:16.788Z,1009.26
2022-11-08T05:28:17.274Z,1009.24
2022-11-08T05:29:16.851Z,1009.25
2022-11-08T05:30:16.901Z,1009.24
2022-11-08T05:31:16.919Z,1009.18
2022-11-08T05:32:16.950Z,1009.23
2022-11-08T05:33:16.980Z,1009.19
2022-11-08T05:34:17.014Z,1009.28
2022-11-08T05:35:17.046Z,1009.24
2022-11-08T05:36:17.080Z,1009.25
2022-11-08T05:37:17.108Z,1009.22
2022-11-08T05:38:17.661Z,1009.20
2022-11-08T05:39:17.175Z,1009.18
2022-11-08T05:40:17.209Z,1009.22
2022-11-08T05:41:17.236Z,1009.18
2022-11-08T05:42:17.271Z,1009.17
2022-11-08T05:43:17.628Z,1009.16
2022-11-08T05:44:17.336Z,1009.19
2022-11-08T05:45:17.365Z,1009.18
2022-11-08T05:46:17.398Z,1009.21
2022-11-08T05:47:17.431Z,1009.20
2022-11-08T05:48:17.800Z,1009.19
2022-11-08T05:49:17.493Z,1009.14
2022-11-08T05:50:19.536Z,1009.16
2022-11-08T05:51:17.561Z,1009.19
2022-11-08T05:52:17.592Z,1009.19
2022-11-08T05:53:18.093Z,1009.19
2022-11-08T05:54:17.767Z,1009.17
2022-11-08T05:55:17.685Z,1009.21
2022-11-08T05:56:17.719Z,1009.17
2022-11-08T05:57:21.225Z,1009.22
2022-11-08T05:58:17.783Z,1009.23
2022-11-08T05:59:17.817Z,1009.22
2022-11-08T06:00:17.851Z,1009.22
2022-11-08T06:01:17.880Z,1009.17
2022-11-08T06:02:18.075Z,1009.18
2022-11-08T06:03:22.601Z,1009.19
2022-11-08T06:04:17.976Z,1009.20
2022-11-08T06:05:18.006Z,1009.25
2022-11-08T06:06:18.037Z,1009.18
2022-11-08T06:07:18.066Z,1009.24
2022-11-08T06:08:18.099Z,1009.25
2022-11-08T06:09:18.129Z,1009.25
2022-11-08T06:10:18.166Z,1009.32
2022-11-08T06:11:18.201Z,1009.29
2022-11-08T06:12:18.228Z,1009.32
2022-11-08T06:13:18.258Z,1009.32
2022-11-08T06:14:18.292Z,1009.29
2022-11-08T06:15:18.344Z,1009.34
2022-11-08T06:16:18.357Z,1009.33
2022-11-08T06:17:18.386Z,1009.37
2022-11-08T06:18:18.421Z,1009.40
2022-11-08T06:19:18.450Z,1009.43
2022-11-08T06:20:18.486Z,1009.37
2022-11-08T06:21:18.517Z,1009.36
2022-11-08T06:22:18.550Z,1009.40
2022-11-08T06:23:18.771Z,1009.39
2022-11-08T06:24:18.639Z,1009.35
2022-11-08T06:25:18.642Z,1009.37
2022-11-08T06:26:18.679Z,1009.40
2022-11-08T06:27:18.706Z,1009.42
2022-11-08T06:28:18.742Z,1009.44
2022-11-08T06:29:18.772Z,1009.40
2022-11-08T06:30:18.804Z,1009.45
2022-11-08T06:31:18.854Z,1009.45
2022-11-08T06:32:18.870Z,1009.43
2022-11-08T06:33:19.173Z,1009.41
2022-11-08T06:34:18.953Z,1009.43
2022-11-08T06:35:19.043Z,1009.42
2022-11-08T06:36:18.998Z,1009.42
2022-11-08T06:37:19.049Z,1009.49
2022-11-08T06:38:19.061Z,1009.43
2022-11-08T06:39:19.092Z,1009.46
2022-11-08T06:40:19.134Z,1009.51
2022-11-08T06:41:19.177Z,1009.49
2022-11-08T06:42:19.191Z,1009.47
2022-11-08T06:43:20.234Z,1009.48
2022-11-08T06:44:19.256Z,1009.49
2022-11-08T06:45:19.286Z,1009.52
2022-11-08T06:46:19.319Z,1009.50
2022-11-08T06:47:19.356Z,1009.49
2022-11-08T06:48:19.384Z,1009.54
2022-11-08T06:49:19.411Z,1009.53
2022-11-08T06:50:19.445Z,1009.52
2022-11-08T06:51:19.476Z,1009.50
2022-11-08T06:52:19.513Z,1009.51
2022-11-08T06:53:19.918Z,1009.51
2022-11-08T06:54:23.252Z,1009.51
2022-11-08T06:55:19.605Z,1009.54
2022-11-08T06:56:19.636Z,1009.49
2022-11-08T06:57:19.670Z,1009.49
2022-11-08T06:58:19.703Z,1009.51
2022-11-08T06:59:19.737Z,1009.46
2022-11-08T07:00:19.765Z,1009.44
2022-11-08T07:01:19.844Z,1009.48
2022-11-08T07:02:19.939Z,1009.53
2022-11-08T07:03:20.173Z,1009.55
2022-11-08T07:04:19.893Z,1009.57
2022-11-08T07:05:19.923Z,1009.52
2022-11-08T07:06:19.956Z,1009.55
2022-11-08T07:07:19.993Z,1009.54
2022-11-08T07:08:23.740Z,1009.51
2022-11-08T07:09:20.052Z,1009.52
2022-11-08T07:10:20.085Z,1009.56
2022-11-08T07:11:20.121Z,1009.50
2022-11-08T07:12:20.149Z,1009.53
2022-11-08T07:13:20.478Z,1009.50
2022-11-08T07:14:20.213Z,1009.50
2022-11-08T07:15:20.244Z,1009.53
2022-11-08T07:16:20.276Z,1009.53
2022-11-08T07:17:20.319Z,1009.49
2022-11-08T07:18:20.409Z,1009.55
2022-11-08T07:19:20.373Z,1009.46
2022-11-08T07:20:20.404Z,1009.45
2022-11-08T07:21:20.451Z,1009.44
2022-11-08T07:22:20.465Z,1009.40
2022-11-08T07:23:20.716Z,1009.40
2022-11-08T07:24:20.532Z,1009.41
2022-11-08T07:25:20.562Z,1009.39
2022-11-08T07:26:20.595Z,1009.36
2022-11-08T07:27:20.627Z,1009.38
2022-11-08T07:28:20.659Z,1009.38
2022-11-08T07:29:20.691Z,1009.37
2022-11-08T07:30:20.724Z,1009.38
2022-11-08T07:31:20.758Z,1009.44
2022-11-08T07:32:20.785Z,1009.38
2022-11-08T07:33:21.118Z,1009.42
2022-11-08T07:34:20.852Z,1009.45
2022-11-08T07:35:20.883Z,1009.47
2022-11-08T07:36:20.917Z,1009.50
2022-11-08T07:37:20.947Z,1009.49
2022-11-08T07:38:20.978Z,1009.49
2022-11-08T07:39:21.010Z,1009.49
2022-11-08T07:40:21.042Z,1009.43
2022-11-08T07:41:21.075Z,1009.45
2022-11-08T07:42:21.104Z,1009.50
2022-11-08T07:43:21.145Z,1009.49
2022-11-08T07:44:21.172Z,1009.46
2022-11-08T07:45:21.210Z,1009.43
2022-11-08T07:46:21.237Z,1009.47
2022-11-08T07:47:21.267Z,1009.44
2022-11-08T07:48:21.299Z,1009.53
2022-11-08T07:49:21.333Z,1009.44
2022-11-08T07:50:21.371Z,1009.42
2022-11-08T07:51:21.394Z,1009.51
2022-11-08T07:52:21.430Z,1009.49
2022-11-08T07:53:21.554Z,1009.47
2022-11-08T07:54:21.488Z,1009.50
2022-11-08T07:55:21.521Z,1009.49
2022-11-08T07:56:21.552Z,1009.49
2022-11-08T07:57:21.584Z,1009.51
2022-11-08T07:58:21.620Z,1009.46
2022-11-08T07:59:21.648Z,1009.49
2022-11-08T08:00:21.682Z,1009.49
2022-11-08T08:01:21.713Z,1009.47
2022-11-08T08:02:21.856Z,1009.46
2022-11-08T08:03:22.266Z,1009.46
2022-11-08T08:04:21.809Z,1009.43
2022-11-08T08:05:21.839Z,1009.40
2022-11-08T08:06:21.871Z,1009.33
2022-11-08T08:07:21.903Z,1009.32
2022-11-08T08:08:21.935Z,1009.30
2022-11-08T08:09:21.969Z,1009.27
2022-11-08T08:10:22.001Z,1009.26
2022-11-08T08:11:22.038Z,1009.28
2022-11-08T08:12:22.062Z,1009.26
2022-11-08T08:13:22.096Z,1009.26
2022-11-08T08:14:22.126Z,1009.23
2022-11-08T08:15:22.162Z,1009.28
2022-11-08T08:16:22.193Z,1009.25
2022-11-08T08:17:22.225Z,1009.25
2022-11-08T08:18:22.261Z,1009.28
2022-11-08T08:19:22.290Z,1009.23
2022-11-08T08:20:22.319Z,1009.32
2022-11-08T08:21:22.359Z,1009.21
2022-11-08T08:22:22.382Z,1009.23
2022-11-08T08:23:22.421Z,1009.23
2022-11-08T08:24:22.448Z,1009.26
2022-11-08T08:25:22.482Z,1009.21
2022-11-08T08:26:22.512Z,1009.21
2022-11-08T08:27:22.547Z,1009.23
2022-11-08T08:28:22.577Z,1009.18
2022-11-08T08:29:22.629Z,1009.20
2022-11-08T08:30:22.641Z,1009.17
2022-11-08T08:31:22.674Z,1009.21
2022-11-08T08:32:22.707Z,1009.19
2022-11-08T08:33:28.244Z,1009.18
2022-11-08T08:34:22.778Z,1009.19
2022-11-08T08:35:22.802Z,1009.23
2022-11-08T08:36:22.834Z,1009.23
2022-11-08T08:37:22.865Z,1009.18
2022-11-08T08:38:22.898Z,1009.17
2022-11-08T08:39:22.931Z,1009.15
2022-11-08T08:40:22.966Z,1009.18
2022-11-08T08:41:22.996Z,1009.22
2022-11-08T08:42:23.029Z,1009.18
2022-11-08T08:43:23.176Z,1009.21
2022-11-08T08:44:23.094Z,1009.18
2022-11-08T08:45:23.125Z,1009.13
2022-11-08T08:46:23.157Z,1009.16
2022-11-08T08:47:23.190Z,1009.16
2022-11-08T08:48:23.237Z,1009.15
2022-11-08T08:49:23.255Z,1009.18
2022-11-08T08:50:23.349Z,1009.18
2022-11-08T08:51:23.321Z,1009.18
2022-11-08T08:52:23.352Z,1009.16
2022-11-08T08:53:23.384Z,1009.07
2022-11-08T08:54:26.867Z,1009.06
2022-11-08T08:55:23.449Z,1009.09
2022-11-08T08:56:23.483Z,1009.12
2022-11-08T08:57:23.514Z,1009.08
2022-11-08T08:58:23.549Z,1009.11
2022-11-08T09:01:39.071Z,1009.11
2022-11-08T09:02:23.677Z,1009.09
2022-11-08T09:03:23.716Z,1009.08
2022-11-08T09:04:23.744Z,1009.10
2022-11-08T09:05:23.776Z,1009.08
2022-11-08T09:06:23.808Z,1009.06
2022-11-08T09:07:23.882Z,1009.10
2022-11-08T09:08:23.873Z,1009.11
2022-11-08T09:09:23.906Z,1009.13
2022-11-08T09:10:24.001Z,1009.08
2022-11-08T09:11:23.972Z,1009.12
2022-11-08T09:12:24.008Z,1009.18
2022-11-08T09:13:24.036Z,1009.12
2022-11-08T09:14:24.069Z,1009.11
2022-11-08T09:15:24.106Z,1009.11
2022-11-08T09:16:24.136Z,1009.17
2022-11-08T09:17:24.173Z,1009.14
2022-11-08T09:18:24.265Z,1009.20
2022-11-08T09:19:24.240Z,1009.15
2022-11-08T09:20:24.285Z,1009.13
2022-11-08T09:21:24.338Z,1009.13
2022-11-08T09:22:24.387Z,1009.15
2022-11-08T09:23:24.381Z,1009.13
2022-11-08T09:24:24.405Z,1009.12
2022-11-08T09:25:24.438Z,1009.13
2022-11-08T09:26:24.470Z,1009.17
2022-11-08T09:27:24.504Z,1009.15
2022-11-08T09:28:29.804Z,1009.12
2022-11-08T09:29:24.571Z,1009.10
2022-11-08T09:30:24.610Z,1009.15
2022-11-08T09:31:24.642Z,1009.12
2022-11-08T09:32:39.329Z,1009.11
2022-11-08T09:33:24.727Z,1009.07
2022-11-08T09:34:24.738Z,1009.07
2022-11-08T09:35:24.772Z,1009.06
2022-11-08T09:36:24.805Z,1009.05
2022-11-08T09:37:24.839Z,1009.09
2022-11-08T09:38:24.872Z,1009.05
2022-11-08T09:39:24.906Z,1009.12
2022-11-08T09:40:24.939Z,1009.12
2022-11-08T09:41:24.974Z,1009.02
2022-11-08T09:42:25.007Z,1009.07
2022-11-08T09:43:25.042Z,1009.00
2022-11-08T09:44:25.075Z,1008.99
2022-11-08T09:45:25.147Z,1009.04
2022-11-08T09:46:25.142Z,1009.06
2022-11-08T09:47:25.176Z,1009.05
2022-11-08T09:48:25.208Z,1009.03
2022-11-08T09:49:25.247Z,1009.03
2022-11-08T09:50:25.277Z,1009.08
2022-11-08T09:51:25.313Z,1009.04
2022-11-08T09:52:25.351Z,1009.07
2022-11-08T09:53:25.386Z,1009.05
2022-11-08T09:54:25.415Z,1009.04
2022-11-08T09:55:25.453Z,1009.00
2022-11-08T09:56:25.483Z,1009.02
2022-11-08T09:57:25.517Z,1009.00
2022-11-08T09:58:25.548Z,1009.06
2022-11-08T09:59:25.586Z,1009.08
2022-11-08T10:00:25.617Z,1009.06
2022-11-08T10:01:27.434Z,1009.05
2022-11-08T10:02:25.810Z,1009.07
2022-11-08T10:03:25.723Z,1009.12
2022-11-08T10:04:25.757Z,1009.18
2022-11-08T10:05:25.790Z,1009.02
2022-11-08T10:06:25.841Z,1009.02
2022-11-08T10:07:25.978Z,1009.09
2022-11-08T10:08:25.896Z,1009.10
2022-11-08T10:09:25.940Z,1009.09
2022-11-08T10:10:25.965Z,1009.01
2022-11-08T10:11:26.005Z,1008.93
2022-11-08T10:12:26.036Z,1009.03
2022-11-08T10:13:26.071Z,1009.03
2022-11-08T10:14:26.107Z,1009.03
2022-11-08T10:15:26.144Z,1009.03
2022-11-08T10:16:26.178Z,1008.97
2022-11-08T10:17:26.214Z,1008.95
2022-11-08T10:18:26.257Z,1008.90
2022-11-08T10:19:26.291Z,1008.92
2022-11-08T10:20:26.330Z,1008.92
2022-11-08T10:21:26.364Z,1008.96
2022-11-08T10:22:26.395Z,1008.95
2022-11-08T10:23:26.435Z,1008.88
2022-11-08T10:24:26.477Z,1008.86
2022-11-08T10:25:26.506Z,1008.81
2022-11-08T10:26:27.354Z,1008.85
2022-11-08T10:27:26.585Z,1008.85
2022-11-08T10:28:26.616Z,1008.88
2022-11-08T10:29:26.654Z,1008.84
2022-11-08T10:30:26.695Z,1008.87
2022-11-08T10:31:26.728Z,1008.86
2022-11-08T10:32:26.765Z,1008.87
2022-11-08T10:33:26.816Z,1008.85
2022-11-08T10:34:26.838Z,1008.81
2022-11-08T10:35:26.880Z,1008.83
2022-11-08T10:36:26.912Z,1008.81
2022-11-08T10:37:26.952Z,1008.78
2022-11-08T10:38:26.991Z,1008.78
2022-11-08T10:39:27.027Z,1008.78
2022-11-08T10:40:27.083Z,1008.80
2022-11-08T10:41:27.100Z,1008.81
2022-11-08T10:42:27.143Z,1008.74
2022-11-08T10:43:27.176Z,1008.70
2022-11-08T10:44:27.214Z,1008.72
2022-11-08T10:45:27.251Z,1008.84
2022-11-08T10:46:27.292Z,1008.74
2022-11-08T10:47:27.349Z,1008.76
2022-11-08T10:48:27.363Z,1008.69
2022-11-08T10:49:27.406Z,1008.68
2022-11-08T10:50:27.437Z,1008.67
2022-11-08T10:51:27.479Z,1008.63
2022-11-08T10:52:27.514Z,1008.71
2022-11-08T10:53:27.551Z,1008.72
2022-11-08T10:54:27.589Z,1008.72
2022-11-08T10:55:27.626Z,1008.70
2022-11-08T10:56:27.664Z,1008.67
2022-11-08T10:57:27.705Z,1008.68
2022-11-08T10:58:27.830Z,1008.68
2022-11-08T10:59:27.779Z,1008.65
2022-11-08T11:00:27.814Z,1008.67
2022-11-08T11:01:27.949Z,1008.65
2022-11-08T11:02:27.935Z,1008.65
2022-11-08T11:03:27.931Z,1008.65
2022-11-08T11:04:27.969Z,1008.64
2022-11-08T11:05:28.005Z,1008.62
2022-11-08T11:06:28.078Z,1008.62
2022-11-08T11:07:28.080Z,1008.69
2022-11-08T11:08:28.121Z,1008.67
2022-11-08T11:09:28.156Z,1008.66
2022-11-08T11:10:28.195Z,1008.75
2022-11-08T11:11:28.237Z,1008.66
2022-11-08T11:12:28.271Z,1008.67
2022-11-08T11:14:28.351Z,1008.67
2022-11-08T11:15:28.388Z,1008.68
2022-11-08T11:16:28.424Z,1008.73
2022-11-08T11:17:28.465Z,1008.69
2022-11-08T11:18:28.504Z,1008.66
2022-11-08T11:19:28.540Z,1008.72
2022-11-08T11:20:28.578Z,1008.66
2022-11-08T11:21:28.621Z,1008.77
2022-11-08T11:22:28.658Z,1008.58
2022-11-08T11:23:28.700Z,1008.60
2022-11-08T11:24:28.736Z,1008.55
2022-11-08T11:25:28.777Z,1008.51
2022-11-08T11:26:28.816Z,1008.54
2022-11-08T11:27:28.856Z,1008.56
2022-11-08T11:28:28.899Z,1008.57
2022-11-08T11:29:28.936Z,1008.53
2022-11-08T11:30:28.980Z,1008.54
2022-11-08T11:31:29.020Z,1008.53
2022-11-08T11:32:29.062Z,1008.53
2022-11-08T11:33:29.123Z,1008.51
2022-11-08T11:34:29.145Z,1008.48
2022-11-08T11:35:29.185Z,1008.47
2022-11-08T11:36:29.231Z,1008.46
2022-11-08T11:37:29.270Z,1008.44
2022-11-08T11:38:29.330Z,1008.43
2022-11-08T11:39:29.355Z,1008.41
2022-11-08T11:40:29.398Z,1008.47
2022-11-08T11:41:29.471Z,1008.40
2022-11-08T11:42:46.519Z,1008.31
2022-11-08T11:43:29.529Z,1008.35
2022-11-08T11:44:29.570Z,1008.29
2022-11-08T11:45:29.615Z,1008.20
2022-11-08T11:46:29.662Z,1008.25
2022-11-08T11:47:29.697Z,1008.19
2022-11-08T11:48:29.740Z,1008.15
2022-11-08T11:49:29.782Z,1008.16
2022-11-08T11:50:29.829Z,1008.15
2022-11-08T11:51:29.992Z,1008.21
2022-11-08T11:52:29.915Z,1008.20
2022-11-08T11:53:29.953Z,1008.23
2022-11-08T11:54:29.997Z,1008.13
2022-11-08T11:55:30.038Z,1008.16
2022-11-08T11:56:30.085Z,1008.11
2022-11-08T11:57:30.123Z,1008.14
2022-11-08T11:58:30.167Z,1008.20
2022-11-08T11:59:30.205Z,1008.22
2022-11-08T12:00:30.252Z,1008.22
2022-11-08T12:01:30.351Z,1008.41
2022-11-08T12:02:30.468Z,1008.08
2022-11-08T12:03:30.372Z,1008.11
2022-11-08T12:04:30.425Z,1008.09
2022-11-08T12:05:30.456Z,1008.06
2022-11-08T12:06:30.551Z,1008.13
2022-11-08T12:07:30.575Z,1008.05
2022-11-08T12:08:30.582Z,1008.06
2022-11-08T12:09:30.619Z,1008.06
2022-11-08T12:10:30.661Z,1008.06
2022-11-08T12:11:30.699Z,1007.98